sensor_id;sensor_type;location;lat;lon;timestamp;pressure;altitude;pressure_sealevel;temperature;humidity
82418;BME280;75985;53.734;10.260;2024-01-30T00:01:46;102239.50;;;1.89;91.46
82418;BME280;75985;53.734;10.260;2024-01-30T00:04:51;102240.88;;;1.86;91.55
82418;BME280;75985;53.734;10.260;2024-01-30T00:07:55;102241.87;;;1.83;91.69
82418;BME280;75985;53.734;10.260;2024-01-30T00:11:00;102244.28;;;1.81;91.82
82418;BME280;75985;53.734;10.260;2024-01-30T00:14:05;102254.74;;;1.79;91.94
82418;BME280;75985;53.734;10.260;2024-01-30T00:17:09;102257.15;;;1.77;92.09
82418;BME280;75985;53.734;10.260;2024-01-30T00:20:14;102248.80;;;1.75;92.17
82418;BME280;75985;53.734;10.260;2024-01-30T00:23:18;102249.96;;;1.73;92.27
82418;BME280;75985;53.734;10.260;2024-01-30T00:26:23;102256.86;;;1.74;92.47
82418;BME280;75985;53.734;10.260;2024-01-30T00:29:28;102250.98;;;1.75;92.59
82418;BME280;75985;53.734;10.260;2024-01-30T00:32:34;102250.47;;;1.74;92.59
82418;BME280;75985;53.734;10.260;2024-01-30T00:35:39;102250.55;;;1.71;92.74
82418;BME280;75985;53.734;10.260;2024-01-30T00:38:43;102245.39;;;1.65;92.84
82418;BME280;75985;53.734;10.260;2024-01-30T00:41:48;102251.12;;;1.63;92.99
82418;BME280;75985;53.734;10.260;2024-01-30T00:44:52;102245.86;;;1.61;93.05
82418;BME280;75985;53.734;10.260;2024-01-30T00:47:57;102236.48;;;1.57;93.16
82418;BME280;75985;53.734;10.260;2024-01-30T00:51:01;102237.55;;;1.59;93.28
82418;BME280;75985;53.734;10.260;2024-01-30T00:54:06;102239.33;;;1.60;93.35
82418;BME280;75985;53.734;10.260;2024-01-30T00:57:11;102240.61;;;1.60;93.38
82418;BME280;75985;53.734;10.260;2024-01-30T01:00:16;102238.05;;;1.60;93.32
82418;BME280;75985;53.734;10.260;2024-01-30T01:03:20;102228.83;;;1.57;93.36
82418;BME280;75985;53.734;10.260;2024-01-30T01:06:25;102229.59;;;1.56;93.33
82418;BME280;75985;53.734;10.260;2024-01-30T01:09:29;102240.71;;;1.56;93.25
82418;BME280;75985;53.734;10.260;2024-01-30T01:12:34;102245.67;;;1.54;93.20
82418;BME280;75985;53.734;10.260;2024-01-30T01:15:38;102249.50;;;1.54;93.25
82418;BME280;75985;53.734;10.260;2024-01-30T01:18:43;102242.36;;;1.56;93.21
82418;BME280;75985;53.734;10.260;2024-01-30T01:21:47;102240.31;;;1.57;93.06
82418;BME280;75985;53.734;10.260;2024-01-30T01:24:52;102236.34;;;1.55;93.06
82418;BME280;75985;53.734;10.260;2024-01-30T01:27:56;102236.34;;;1.55;93.04
82418;BME280;75985;53.734;10.260;2024-01-30T01:31:00;102234.84;;;1.57;93.10
82418;BME280;75985;53.734;10.260;2024-01-30T01:34:07;102236.41;;;1.60;93.09
82418;BME280;75985;53.734;10.260;2024-01-30T01:37:11;102232.99;;;1.65;93.00
82418;BME280;75985;53.734;10.260;2024-01-30T01:40:16;102237.78;;;1.71;92.96
82418;BME280;75985;53.734;10.260;2024-01-30T01:43:20;102233.87;;;1.74;92.84
82418;BME280;75985;53.734;10.260;2024-01-30T01:46:27;102227.16;;;1.80;92.83
82418;BME280;75985;53.734;10.260;2024-01-30T01:49:32;102222.09;;;1.85;92.57
82418;BME280;75985;53.734;10.260;2024-01-30T01:52:37;102220.85;;;1.90;92.37
82418;BME280;75985;53.734;10.260;2024-01-30T01:55:41;102228.08;;;1.95;92.17
82418;BME280;75985;53.734;10.260;2024-01-30T01:58:46;102223.98;;;1.97;92.11
82418;BME280;75985;53.734;10.260;2024-01-30T02:01:52;102212.27;;;1.99;91.97
82418;BME280;75985;53.734;10.260;2024-01-30T02:04:58;102212.52;;;2.02;91.94
82418;BME280;75985;53.734;10.260;2024-01-30T02:08:03;102210.52;;;2.03;91.84
82418;BME280;75985;53.734;10.260;2024-01-30T02:11:07;102213.47;;;2.08;91.79
82418;BME280;75985;53.734;10.260;2024-01-30T02:14:13;102204.19;;;2.13;91.73
82418;BME280;75985;53.734;10.260;2024-01-30T02:17:18;102197.20;;;2.16;91.59
82418;BME280;75985;53.734;10.260;2024-01-30T02:20:24;102198.73;;;2.19;91.45
82418;BME280;75985;53.734;10.260;2024-01-30T02:23:31;102188.01;;;2.18;91.32
82418;BME280;75985;53.734;10.260;2024-01-30T02:26:37;102185.73;;;2.21;91.17
82418;BME280;75985;53.734;10.260;2024-01-30T02:29:41;102177.30;;;2.22;91.01
82418;BME280;75985;53.734;10.260;2024-01-30T02:32:46;102173.47;;;2.22;90.86
82418;BME280;75985;53.734;10.260;2024-01-30T02:35:50;102176.53;;;2.23;90.85
82418;BME280;75985;53.734;10.260;2024-01-30T02:38:55;102169.63;;;2.22;90.85
82418;BME280;75985;53.734;10.260;2024-01-30T02:41:59;102166.71;;;2.23;90.86
82418;BME280;75985;53.734;10.260;2024-01-30T02:45:04;102169.01;;;2.25;90.84
82418;BME280;75985;53.734;10.260;2024-01-30T02:48:09;102161.99;;;2.27;90.73
82418;BME280;75985;53.734;10.260;2024-01-30T02:51:13;102168.38;;;2.27;90.57
82418;BME280;75985;53.734;10.260;2024-01-30T02:54:18;102161.99;;;2.27;90.54
82418;BME280;75985;53.734;10.260;2024-01-30T02:57:22;102162.39;;;2.27;90.48
82418;BME280;75985;53.734;10.260;2024-01-30T03:00:27;102164.81;;;2.25;90.43
82418;BME280;75985;53.734;10.260;2024-01-30T03:03:31;102163.11;;;2.21;90.41
82418;BME280;75985;53.734;10.260;2024-01-30T03:06:38;102165.01;;;2.18;90.37
82418;BME280;75985;53.734;10.260;2024-01-30T03:09:42;102160.16;;;2.16;90.42
82418;BME280;75985;53.734;10.260;2024-01-30T03:12:47;102158.59;;;2.13;90.40
82418;BME280;75985;53.734;10.260;2024-01-30T03:15:51;102158.82;;;2.11;90.46
82418;BME280;75985;53.734;10.260;2024-01-30T03:18:56;102154.96;;;2.05;90.53
82418;BME280;75985;53.734;10.260;2024-01-30T03:22:00;102152.97;;;1.98;90.60
82418;BME280;75985;53.734;10.260;2024-01-30T03:25:05;102147.47;;;1.93;90.70
82418;BME280;75985;53.734;10.260;2024-01-30T03:28:09;102147.41;;;1.88;90.88
82418;BME280;75985;53.734;10.260;2024-01-30T03:31:15;102145.84;;;1.85;91.11
82418;BME280;75985;53.734;10.260;2024-01-30T03:34:20;102142.63;;;1.82;91.28
82418;BME280;75985;53.734;10.260;2024-01-30T03:37:24;102138.66;;;1.80;91.46
82418;BME280;75985;53.734;10.260;2024-01-30T03:40:29;102137.27;;;1.79;91.59
82418;BME280;75985;53.734;10.260;2024-01-30T03:43:33;102134.28;;;1.74;91.75
82418;BME280;75985;53.734;10.260;2024-01-30T03:46:38;102127.50;;;1.75;91.87
82418;BME280;75985;53.734;10.260;2024-01-30T03:49:42;102123.42;;;1.72;91.85
82418;BME280;75985;53.734;10.260;2024-01-30T03:52:47;102118.53;;;1.70;91.98
82418;BME280;75985;53.734;10.260;2024-01-30T03:55:51;102123.12;;;1.69;92.21
82418;BME280;75985;53.734;10.260;2024-01-30T03:58:56;102119.44;;;1.70;92.39
82418;BME280;75985;53.734;10.260;2024-01-30T04:02:02;102116.12;;;1.71;92.46
82418;BME280;75985;53.734;10.260;2024-01-30T04:05:06;102115.83;;;1.68;92.53
82418;BME280;75985;53.734;10.260;2024-01-30T04:08:11;102111.72;;;1.65;92.61
82418;BME280;75985;53.734;10.260;2024-01-30T04:11:17;102120.40;;;1.62;92.78
82418;BME280;75985;53.734;10.260;2024-01-30T04:14:21;102126.02;;;1.63;93.10
82418;BME280;75985;53.734;10.260;2024-01-30T04:17:26;102124.91;;;1.70;93.25
82418;BME280;75985;53.734;10.260;2024-01-30T04:20:32;102118.20;;;1.75;93.18
82418;BME280;75985;53.734;10.260;2024-01-30T04:23:36;102122.17;;;1.77;93.09
82418;BME280;75985;53.734;10.260;2024-01-30T04:26:41;102120.67;;;1.79;93.18
82418;BME280;75985;53.734;10.260;2024-01-30T04:29:46;102122.74;;;1.83;93.39
82418;BME280;75985;53.734;10.260;2024-01-30T04:32:50;102120.19;;;1.83;93.43
82418;BME280;75985;53.734;10.260;2024-01-30T04:35:55;102124.39;;;1.83;93.38
82418;BME280;75985;53.734;10.260;2024-01-30T04:38:59;102125.77;;;1.79;93.32
82418;BME280;75985;53.734;10.260;2024-01-30T04:42:04;102127.90;;;1.74;93.43
82418;BME280;75985;53.734;10.260;2024-01-30T04:45:09;102130.53;;;1.71;93.62
82418;BME280;75985;53.734;10.260;2024-01-30T04:48:13;102138.45;;;1.69;93.69
82418;BME280;75985;53.734;10.260;2024-01-30T04:51:18;102134.95;;;1.63;93.71
82418;BME280;75985;53.734;10.260;2024-01-30T04:54:22;102132.39;;;1.63;93.83
82418;BME280;75985;53.734;10.260;2024-01-30T04:57:27;102136.84;;;1.60;93.91
82418;BME280;75985;53.734;10.260;2024-01-30T05:00:31;102131.81;;;1.57;94.01
82418;BME280;75985;53.734;10.260;2024-01-30T05:03:36;102132.07;;;1.54;94.06
82418;BME280;75985;53.734;10.260;2024-01-30T05:06:40;102125.91;;;1.52;94.24
82418;BME280;75985;53.734;10.260;2024-01-30T05:09:45;102127.59;;;1.52;94.33
82418;BME280;75985;53.734;10.260;2024-01-30T05:12:50;102118.88;;;1.50;94.50
82418;BME280;75985;53.734;10.260;2024-01-30T05:15:54;102121.46;;;1.55;94.65
82418;BME280;75985;53.734;10.260;2024-01-30T05:18:59;102118.40;;;1.54;94.71
82418;BME280;75985;53.734;10.260;2024-01-30T05:22:04;102119.67;;;1.54;94.79
82418;BME280;75985;53.734;10.260;2024-01-30T05:25:08;102113.91;;;1.51;94.89
82418;BME280;75985;53.734;10.260;2024-01-30T05:28:13;102118.88;;;1.50;94.98
82418;BME280;75985;53.734;10.260;2024-01-30T05:31:17;102119.09;;;1.48;95.14
82418;BME280;75985;53.734;10.260;2024-01-30T05:34:22;102116.94;;;1.47;95.28
82418;BME280;75985;53.734;10.260;2024-01-30T05:37:26;102108.84;;;1.43;95.39
82418;BME280;75985;53.734;10.260;2024-01-30T05:40:31;102124.59;;;1.47;95.52
82418;BME280;75985;53.734;10.260;2024-01-30T05:43:35;102117.45;;;1.48;95.70
82418;BME280;75985;53.734;10.260;2024-01-30T05:46:40;102119.02;;;1.51;95.84
82418;BME280;75985;53.734;10.260;2024-01-30T05:49:44;102105.56;;;1.58;95.93
82418;BME280;75985;53.734;10.260;2024-01-30T05:52:49;102105.22;;;1.63;95.93
82418;BME280;75985;53.734;10.260;2024-01-30T05:55:53;102104.63;;;1.71;95.93
82418;BME280;75985;53.734;10.260;2024-01-30T05:58:58;102101.88;;;1.78;95.92
82418;BME280;75985;53.734;10.260;2024-01-30T06:02:02;102097.45;;;1.86;95.85
82418;BME280;75985;53.734;10.260;2024-01-30T06:05:07;102091.78;;;1.94;95.76
82418;BME280;75985;53.734;10.260;2024-01-30T06:08:13;102100.26;;;2.03;95.63
82418;BME280;75985;53.734;10.260;2024-01-30T06:11:17;102093.30;;;2.11;95.41
82418;BME280;75985;53.734;10.260;2024-01-30T06:14:22;102085.56;;;2.20;95.21
82418;BME280;75985;53.734;10.260;2024-01-30T06:17:27;102083.17;;;2.27;94.95
82418;BME280;75985;53.734;10.260;2024-01-30T06:20:31;102071.55;;;2.30;94.74
82418;BME280;75985;53.734;10.260;2024-01-30T06:23:35;102078.34;;;2.35;94.58
82418;BME280;75985;53.734;10.260;2024-01-30T06:26:40;102075.67;;;2.39;94.39
82418;BME280;75985;53.734;10.260;2024-01-30T06:29:45;102076.72;;;2.41;94.24
82418;BME280;75985;53.734;10.260;2024-01-30T06:32:50;102064.70;;;2.40;94.11
82418;BME280;75985;53.734;10.260;2024-01-30T06:35:55;102067.89;;;2.37;94.00
82418;BME280;75985;53.734;10.260;2024-01-30T06:38:59;102062.64;;;2.36;94.00
82418;BME280;75985;53.734;10.260;2024-01-30T06:42:04;102071.05;;;2.35;94.11
82418;BME280;75985;53.734;10.260;2024-01-30T06:45:09;102065.57;;;2.35;94.37
82418;BME280;75985;53.734;10.260;2024-01-30T06:48:14;102072.23;;;2.38;94.49
82418;BME280;75985;53.734;10.260;2024-01-30T06:51:18;102078.00;;;2.46;94.58
82418;BME280;75985;53.734;10.260;2024-01-30T06:54:22;102074.35;;;2.53;94.53
82418;BME280;75985;53.734;10.260;2024-01-30T06:57:27;102069.89;;;2.61;94.52
82418;BME280;75985;53.734;10.260;2024-01-30T07:00:34;102070.44;;;2.67;94.48
82418;BME280;75985;53.734;10.260;2024-01-30T07:03:38;102075.56;;;2.72;94.42
82418;BME280;75985;53.734;10.260;2024-01-30T07:06:42;102084.92;;;2.77;94.41
82418;BME280;75985;53.734;10.260;2024-01-30T07:09:47;102078.77;;;2.80;94.35
82418;BME280;75985;53.734;10.260;2024-01-30T07:12:53;102072.68;;;2.88;94.26
82418;BME280;75985;53.734;10.260;2024-01-30T07:15:58;102068.48;;;2.99;94.12
82418;BME280;75985;53.734;10.260;2024-01-30T07:19:02;102062.08;;;3.04;93.94
82418;BME280;75985;53.734;10.260;2024-01-30T07:22:07;102070.53;;;3.08;93.77
82418;BME280;75985;53.734;10.260;2024-01-30T07:25:12;102073.63;;;3.15;93.67
82418;BME280;75985;53.734;10.260;2024-01-30T07:28:17;102059.95;;;3.19;93.45
82418;BME280;75985;53.734;10.260;2024-01-30T07:31:21;102058.80;;;3.21;93.20
82418;BME280;75985;53.734;10.260;2024-01-30T07:34:26;102054.94;;;3.16;93.04
82418;BME280;75985;53.734;10.260;2024-01-30T07:37:31;102058.51;;;3.07;93.03
82418;BME280;75985;53.734;10.260;2024-01-30T07:40:35;102058.24;;;2.99;93.11
82418;BME280;75985;53.734;10.260;2024-01-30T07:43:40;102066.16;;;2.92;93.25
82418;BME280;75985;53.734;10.260;2024-01-30T07:46:44;102077.53;;;2.90;93.44
82418;BME280;75985;53.734;10.260;2024-01-30T07:49:49;102074.33;;;2.93;93.52
82418;BME280;75985;53.734;10.260;2024-01-30T07:52:56;102067.97;;;2.98;93.45
82418;BME280;75985;53.734;10.260;2024-01-30T07:56:00;102068.23;;;3.06;93.34
82418;BME280;75985;53.734;10.260;2024-01-30T07:59:09;102071.97;;;3.15;93.09
82418;BME280;75985;53.734;10.260;2024-01-30T08:02:14;102067.36;;;3.21;92.87
82418;BME280;75985;53.734;10.260;2024-01-30T08:05:19;102070.81;;;3.27;92.63
82418;BME280;75985;53.734;10.260;2024-01-30T08:08:25;102065.97;;;3.30;92.49
82418;BME280;75985;53.734;10.260;2024-01-30T08:11:30;102066.73;;;3.34;92.41
82418;BME280;75985;53.734;10.260;2024-01-30T08:14:35;102072.89;;;3.42;92.30
82418;BME280;75985;53.734;10.260;2024-01-30T08:17:39;102063.67;;;3.49;92.08
82418;BME280;75985;53.734;10.260;2024-01-30T08:20:44;102069.05;;;3.57;91.83
82418;BME280;75985;53.734;10.260;2024-01-30T08:23:49;102060.96;;;3.68;91.63
82418;BME280;75985;53.734;10.260;2024-01-30T08:26:53;102066.46;;;3.78;91.43
82418;BME280;75985;53.734;10.260;2024-01-30T08:29:58;102053.39;;;3.85;91.22
82418;BME280;75985;53.734;10.260;2024-01-30T08:33:02;102053.63;;;3.94;90.96
82418;BME280;75985;53.734;10.260;2024-01-30T08:36:07;102046.82;;;3.99;90.69
82418;BME280;75985;53.734;10.260;2024-01-30T08:39:11;102045.77;;;4.08;90.45
82418;BME280;75985;53.734;10.260;2024-01-30T08:42:16;102043.47;;;4.16;90.19
82418;BME280;75985;53.734;10.260;2024-01-30T08:45:22;102038.16;;;4.25;90.03
82418;BME280;75985;53.734;10.260;2024-01-30T08:48:27;102050.30;;;4.38;89.77
82418;BME280;75985;53.734;10.260;2024-01-30T08:51:31;102037.69;;;4.52;89.43
82418;BME280;75985;53.734;10.260;2024-01-30T08:54:36;102037.98;;;4.67;89.17
82418;BME280;75985;53.734;10.260;2024-01-30T08:57:41;102022.25;;;4.84;88.85
82418;BME280;75985;53.734;10.260;2024-01-30T09:00:45;102020.58;;;5.02;88.51
82418;BME280;75985;53.734;10.260;2024-01-30T09:03:50;102023.66;;;5.20;88.04
82418;BME280;75985;53.734;10.260;2024-01-30T09:06:55;102025.36;;;5.32;87.48
82418;BME280;75985;53.734;10.260;2024-01-30T09:09:59;102017.70;;;5.44;87.01
82418;BME280;75985;53.734;10.260;2024-01-30T09:13:04;102015.78;;;5.58;86.41
82418;BME280;75985;53.734;10.260;2024-01-30T09:16:08;102013.09;;;5.69;86.07
82418;BME280;75985;53.734;10.260;2024-01-30T09:19:13;102001.43;;;5.79;85.73
82418;BME280;75985;53.734;10.260;2024-01-30T09:22:17;101989.47;;;5.91;85.33
82418;BME280;75985;53.734;10.260;2024-01-30T09:25:22;101986.37;;;6.02;85.06
82418;BME280;75985;53.734;10.260;2024-01-30T09:28:26;101980.36;;;6.14;84.67
82418;BME280;75985;53.734;10.260;2024-01-30T09:31:31;101990.91;;;6.24;84.31
82418;BME280;75985;53.734;10.260;2024-01-30T09:34:35;102001.98;;;6.35;83.93
82418;BME280;75985;53.734;10.260;2024-01-30T09:37:40;102017.72;;;6.39;83.42
82418;BME280;75985;53.734;10.260;2024-01-30T09:40:46;102014.77;;;6.40;83.12
82418;BME280;75985;53.734;10.260;2024-01-30T09:43:51;102020.14;;;6.43;83.08
82418;BME280;75985;53.734;10.260;2024-01-30T09:46:57;102022.63;;;6.48;82.88
82418;BME280;75985;53.734;10.260;2024-01-30T09:50:04;102027.43;;;6.55;82.56
82418;BME280;75985;53.734;10.260;2024-01-30T09:53:09;102030.75;;;6.66;82.23
82418;BME280;75985;53.734;10.260;2024-01-30T09:56:14;102028.84;;;6.76;81.85
82418;BME280;75985;53.734;10.260;2024-01-30T09:59:20;102032.34;;;6.83;81.53
82418;BME280;75985;53.734;10.260;2024-01-30T10:02:24;102023.47;;;6.91;81.34
82418;BME280;75985;53.734;10.260;2024-01-30T10:05:31;102012.01;;;7.00;81.18
82418;BME280;75985;53.734;10.260;2024-01-30T10:08:37;102020.34;;;7.09;80.94
82418;BME280;75985;53.734;10.260;2024-01-30T10:11:42;102008.01;;;7.17;80.67
82418;BME280;75985;53.734;10.260;2024-01-30T10:14:46;102011.98;;;7.25;80.40
82418;BME280;75985;53.734;10.260;2024-01-30T10:17:51;102001.31;;;7.32;80.16
82418;BME280;75985;53.734;10.260;2024-01-30T10:20:55;102007.55;;;7.36;79.83
82418;BME280;75985;53.734;10.260;2024-01-30T10:24:00;102003.20;;;7.42;79.62
82418;BME280;75985;53.734;10.260;2024-01-30T10:27:06;101997.56;;;7.48;79.57
82418;BME280;75985;53.734;10.260;2024-01-30T10:30:10;101990.36;;;7.55;79.49
82418;BME280;75985;53.734;10.260;2024-01-30T10:33:15;101991.75;;;7.64;79.11
82418;BME280;75985;53.734;10.260;2024-01-30T10:36:21;101996.03;;;7.77;78.66
82418;BME280;75985;53.734;10.260;2024-01-30T10:39:29;101990.16;;;7.86;78.31
82418;BME280;75985;53.734;10.260;2024-01-30T10:42:36;101992.75;;;8.00;78.11
82418;BME280;75985;53.734;10.260;2024-01-30T10:45:42;101990.75;;;8.09;77.75
82418;BME280;75985;53.734;10.260;2024-01-30T10:48:57;101992.55;;;8.17;77.42
82418;BME280;75985;53.734;10.260;2024-01-30T10:52:05;101980.62;;;8.19;77.01
82418;BME280;75985;53.734;10.260;2024-01-30T10:55:11;101985.38;;;8.26;76.79
82418;BME280;75985;53.734;10.260;2024-01-30T10:58:16;101979.32;;;8.32;76.64
82418;BME280;75985;53.734;10.260;2024-01-30T11:01:22;101977.52;;;8.38;76.43
82418;BME280;75985;53.734;10.260;2024-01-30T11:04:39;101969.53;;;8.48;76.33
82418;BME280;75985;53.734;10.260;2024-01-30T11:07:44;101976.31;;;8.53;76.02
82418;BME280;75985;53.734;10.260;2024-01-30T11:10:49;101977.28;;;8.62;75.79
82418;BME280;75985;53.734;10.260;2024-01-30T11:13:53;101977.53;;;8.73;75.50
82418;BME280;75985;53.734;10.260;2024-01-30T11:16:58;101971.77;;;8.78;75.11
82418;BME280;75985;53.734;10.260;2024-01-30T11:20:03;101970.95;;;8.79;74.80
82418;BME280;75985;53.734;10.260;2024-01-30T11:23:10;101970.05;;;8.85;74.97
82418;BME280;75985;53.734;10.260;2024-01-30T11:26:16;101972.49;;;8.90;74.77
82418;BME280;75985;53.734;10.260;2024-01-30T11:29:28;101960.68;;;8.87;74.68
82418;BME280;75985;53.734;10.260;2024-01-30T11:32:28;101962.30;;;8.85;74.61
82418;BME280;75985;53.734;10.260;2024-01-30T11:35:39;101964.36;;;8.84;74.49
82418;BME280;75985;53.734;10.260;2024-01-30T11:38:39;101962.36;;;8.86;74.53
82418;BME280;75985;53.734;10.260;2024-01-30T11:41:46;101964.12;;;8.94;74.62
82418;BME280;75985;53.734;10.260;2024-01-30T11:44:52;101950.50;;;8.97;74.27
82418;BME280;75985;53.734;10.260;2024-01-30T11:47:57;101958.34;;;8.98;74.22
82418;BME280;75985;53.734;10.260;2024-01-30T11:51:03;101953.17;;;8.98;74.08
82418;BME280;75985;53.734;10.260;2024-01-30T11:54:08;101955.09;;;8.94;73.97
82418;BME280;75985;53.734;10.260;2024-01-30T11:57:13;101955.89;;;8.93;74.18
82418;BME280;75985;53.734;10.260;2024-01-30T12:00:19;101954.61;;;8.93;74.30
82418;BME280;75985;53.734;10.260;2024-01-30T12:03:24;101949.73;;;8.91;74.36
82418;BME280;75985;53.734;10.260;2024-01-30T12:06:29;101946.67;;;8.90;74.38
82418;BME280;75985;53.734;10.260;2024-01-30T12:09:33;101944.38;;;8.88;74.42
82418;BME280;75985;53.734;10.260;2024-01-30T12:12:38;101948.09;;;8.85;74.46
82418;BME280;75985;53.734;10.260;2024-01-30T12:15:43;101949.68;;;8.83;74.56
82418;BME280;75985;53.734;10.260;2024-01-30T12:18:48;101945.09;;;8.85;74.63
82418;BME280;75985;53.734;10.260;2024-01-30T12:21:57;101943.22;;;8.83;74.68
82418;BME280;75985;53.734;10.260;2024-01-30T12:25:05;101935.09;;;8.83;74.77
82418;BME280;75985;53.734;10.260;2024-01-30T12:28:10;101931.31;;;8.85;74.90
82418;BME280;75985;53.734;10.260;2024-01-30T12:31:16;101926.05;;;8.83;74.89
82418;BME280;75985;53.734;10.260;2024-01-30T12:34:21;101923.48;;;8.77;74.95
82418;BME280;75985;53.734;10.260;2024-01-30T12:37:25;101927.97;;;8.72;75.13
82418;BME280;75985;53.734;10.260;2024-01-30T12:40:30;101919.26;;;8.70;75.27
82418;BME280;75985;53.734;10.260;2024-01-30T12:43:36;101917.87;;;8.69;75.30
82418;BME280;75985;53.734;10.260;2024-01-30T12:46:41;101921.45;;;8.64;75.42
82418;BME280;75985;53.734;10.260;2024-01-30T12:49:45;101917.39;;;8.61;75.64
82418;BME280;75985;53.734;10.260;2024-01-30T12:52:50;101922.88;;;8.59;75.86
82418;BME280;75985;53.734;10.260;2024-01-30T12:55:55;101914.56;;;8.56;76.08
82418;BME280;75985;53.734;10.260;2024-01-30T12:58:59;101913.75;;;8.57;76.16
82418;BME280;75985;53.734;10.260;2024-01-30T13:02:04;101916.04;;;8.59;76.26
82418;BME280;75985;53.734;10.260;2024-01-30T13:05:09;101920.30;;;8.59;76.38
82418;BME280;75985;53.734;10.260;2024-01-30T13:08:14;101917.39;;;8.61;76.41
82418;BME280;75985;53.734;10.260;2024-01-30T13:11:18;101922.45;;;8.66;76.41
82418;BME280;75985;53.734;10.260;2024-01-30T13:14:23;101928.10;;;8.67;76.42
82418;BME280;75985;53.734;10.260;2024-01-30T13:17:29;101928.91;;;8.66;76.45
82418;BME280;75985;53.734;10.260;2024-01-30T13:20:33;101919.45;;;8.67;76.53
82418;BME280;75985;53.734;10.260;2024-01-30T13:23:38;101921.16;;;8.66;76.70
82418;BME280;75985;53.734;10.260;2024-01-30T13:26:44;101913.00;;;8.67;76.75
82418;BME280;75985;53.734;10.260;2024-01-30T13:29:49;101914.71;;;8.66;76.86
82418;BME280;75985;53.734;10.260;2024-01-30T13:32:53;101915.33;;;8.62;77.09
82418;BME280;75985;53.734;10.260;2024-01-30T13:35:58;101920.16;;;8.64;77.23
82418;BME280;75985;53.734;10.260;2024-01-30T13:39:02;101922.55;;;8.61;77.43
82418;BME280;75985;53.734;10.260;2024-01-30T13:42:08;101912.33;;;8.63;77.53
82418;BME280;75985;53.734;10.260;2024-01-30T13:45:12;101910.84;;;8.66;77.58
82418;BME280;75985;53.734;10.260;2024-01-30T13:48:17;101918.67;;;8.68;77.66
82418;BME280;75985;53.734;10.260;2024-01-30T13:51:21;101913.00;;;8.67;77.80
82418;BME280;75985;53.734;10.260;2024-01-30T13:54:26;101914.71;;;8.66;77.94
82418;BME280;75985;53.734;10.260;2024-01-30T13:57:31;101910.74;;;8.65;78.09
82418;BME280;75985;53.734;10.260;2024-01-30T14:00:37;101914.03;;;8.62;78.39
82418;BME280;75985;53.734;10.260;2024-01-30T14:03:41;101917.33;;;8.59;78.66
82418;BME280;75985;53.734;10.260;2024-01-30T14:06:46;101915.84;;;8.56;79.07
82418;BME280;75985;53.734;10.260;2024-01-30T14:09:51;101915.91;;;8.51;79.47
82418;BME280;75985;53.734;10.260;2024-01-30T14:12:55;101916.62;;;8.48;79.81
82418;BME280;75985;53.734;10.260;2024-01-30T14:16:00;101913.17;;;8.48;80.05
82418;BME280;75985;53.734;10.260;2024-01-30T14:19:04;101904.63;;;8.49;80.27
82418;BME280;75985;53.734;10.260;2024-01-30T14:22:09;101906.23;;;8.54;80.39
82418;BME280;75985;53.734;10.260;2024-01-30T14:25:14;101900.55;;;8.59;80.40
82418;BME280;75985;53.734;10.260;2024-01-30T14:28:19;101906.97;;;8.66;80.40
82418;BME280;75985;53.734;10.260;2024-01-30T14:31:24;101908.60;;;8.72;80.33
82418;BME280;75985;53.734;10.260;2024-01-30T14:34:28;101904.63;;;8.78;80.29
82418;BME280;75985;53.734;10.260;2024-01-30T14:37:33;101910.47;;;8.82;80.27
82418;BME280;75985;53.734;10.260;2024-01-30T14:40:38;101901.10;;;8.84;80.30
82418;BME280;75985;53.734;10.260;2024-01-30T14:43:43;101894.73;;;8.85;80.32
82418;BME280;75985;53.734;10.260;2024-01-30T14:46:48;101899.09;;;8.86;80.38
82418;BME280;75985;53.734;10.260;2024-01-30T14:49:52;101896.61;;;8.88;80.42
82418;BME280;75985;53.734;10.260;2024-01-30T14:52:57;101893.15;;;8.87;80.45
82418;BME280;75985;53.734;10.260;2024-01-30T14:56:01;101895.64;;;8.86;80.58
82418;BME280;75985;53.734;10.260;2024-01-30T14:59:06;101887.89;;;8.86;80.65
82418;BME280;75985;53.734;10.260;2024-01-30T15:02:11;101889.58;;;8.85;80.68
82418;BME280;75985;53.734;10.260;2024-01-30T15:05:15;101892.73;;;8.88;80.71
82418;BME280;75985;53.734;10.260;2024-01-30T15:08:20;101899.19;;;8.88;80.76
82418;BME280;75985;53.734;10.260;2024-01-30T15:11:24;101897.60;;;8.90;80.79
82418;BME280;75985;53.734;10.260;2024-01-30T15:14:29;101895.11;;;8.92;80.83
82418;BME280;75985;53.734;10.260;2024-01-30T15:17:33;101898.08;;;8.91;80.88
82418;BME280;75985;53.734;10.260;2024-01-30T15:20:38;101895.02;;;8.90;80.96
82418;BME280;75985;53.734;10.260;2024-01-30T15:23:42;101899.28;;;8.90;80.98
82418;BME280;75985;53.734;10.260;2024-01-30T15:26:47;101900.00;;;8.87;81.01
82418;BME280;75985;53.734;10.260;2024-01-30T15:29:51;101908.13;;;8.86;81.04
82418;BME280;75985;53.734;10.260;2024-01-30T15:32:56;101906.27;;;8.84;81.06
82418;BME280;75985;53.734;10.260;2024-01-30T15:36:01;101902.23;;;8.81;81.14
82418;BME280;75985;53.734;10.260;2024-01-30T15:39:05;101906.02;;;8.79;81.23
82418;BME280;75985;53.734;10.260;2024-01-30T15:42:10;101911.95;;;8.78;81.29
82418;BME280;75985;53.734;10.260;2024-01-30T15:45:14;101913.15;;;8.77;81.37
82418;BME280;75985;53.734;10.260;2024-01-30T15:48:19;101911.37;;;8.76;81.49
82418;BME280;75985;53.734;10.260;2024-01-30T15:51:24;101914.19;;;8.72;81.60
82418;BME280;75985;53.734;10.260;2024-01-30T15:54:28;101921.03;;;8.71;81.69
82418;BME280;75985;53.734;10.260;2024-01-30T15:57:33;101921.84;;;8.70;81.78
82418;BME280;75985;53.734;10.260;2024-01-30T16:00:38;101924.23;;;8.67;81.88
82418;BME280;75985;53.734;10.260;2024-01-30T16:03:42;101913.52;;;8.61;82.22
82418;BME280;75985;53.734;10.260;2024-01-30T16:06:49;101908.10;;;8.56;82.53